Terminal Aerodrome Forecast
Issued by NWS

Home | Current Version | Previous Version | Text Only | Print | Product List | Glossary On
Versions: 1 2 3 4 5 6 7 8 9 10 11 12 13 14 15 16
583
FTUS42 KTBW 131720
TAFLAL
TAF
KLAL 131720Z 1318/1418 34011KT P6SM SKC
     FM140300 02007KT P6SM SKC
     FM141400 07009KT P6SM FEW250=

USA.gov is the U.S. government's official web portal to all federal, state and local government web resources and services.